Aeroporto :
LOGIN :

Iscrizione | Disclaimer

   EN    FR    IT 

 










Sommario :    VFR   VFR Marginale   IFR   IFR Intensivo   IFR Molto Intensivo
Visibilità : 
Base nubi : 
>= 8 km
>= 3000ft
5 / 8 km
1000 / 3000 ft
1500m / 5 km
500 / 1000 ft
800 / 1500m
200 / 500 ft
< 800m
< 200 ft
Simboli :   Temporali  Nebbia  Neve Forte  Precipitazioni Forti  Vento > 20 kt
SIGMETs :   Varie  Temporali  Ghiacco  Turbolenza  Onda orograficha  Ceneri Vulcaniche






- Altitudine del aeroporto : 55 ft
- Codice IATA : DSA


EGCN - Robin Hood Doncaster Sheffield

ULTIMO METAR :
  • 211920Z 09004KT 050V110 9000 BKN020 05/03 Q1003

METARs OBSOLETI :
  • 211850Z 09004KT 050V120 9999 BKN021 05/03 Q1003
  • 211820Z VRB03KT 9999 SCT021 BKN027 05/03 Q1003
  • 211750Z 05004KT 9999 SCT021 BKN027 05/03 Q1003
  • 211720Z VRB03KT 9999 FEW022 OVC028 05/02 Q1004
  • 211650Z VRB03KT 8000 BKN028 05/03 Q1004

TAF TAF EGCN
Valido dal 21 a 18 ore il 22 a 18 ore UTC


211658Z 2118/2218 10006KT 9999 BKN025
BECMG 2118/2121 9000 BKN012
PROB30
TEMPO 2121/2124 2000 BR BKN003
TEMPO 2200/2218 2000 RA
TEMPO 2200/2209 BKN003
BECMG 2209/2212 9999 NSW SCT020
TEMPO 2212/2218 BKN010



MetMap, La meteo Aeronautica in un colpo d'occhio ! - Copyright ORBIFLY Dicembre 2007 - Disclaimer

ORBIFLY MET'MAP TEAM :

Programmazione e sviluppo : Alexandra Zaïnal
Concezione e sviluppo : Baudouin d'Aumeries
Co-Programmazione e sviluppo : Marc-Olivier Méhu
Supporto tecnico e logistico : Manuel Goepfert
Aiuto per la traduzione : Arnaldo La Scala

Contatto : metmap@orbifly.com




FONTI E CREDITI :

   NOAA